sensor_id;sensor_type;location;lat;lon;timestamp;temperature;humidity
3504;DHT22;1766;53.490;10.174;2023-03-01T00:00:22;6.10;35.80
3504;DHT22;1766;53.490;10.174;2023-03-01T00:02:24;6.20;36.00
3504;DHT22;1766;53.490;10.174;2023-03-01T00:04:26;6.10;35.90
3504;DHT22;1766;53.490;10.174;2023-03-01T00:06:28;6.00;36.00
3504;DHT22;1766;53.490;10.174;2023-03-01T00:08:30;6.00;36.00
3504;DHT22;1766;53.490;10.174;2023-03-01T00:10:33;6.00;36.10
3504;DHT22;1766;53.490;10.174;2023-03-01T00:12:36;5.90;36.00
3504;DHT22;1766;53.490;10.174;2023-03-01T00:14:38;6.00;36.10
3504;DHT22;1766;53.490;10.174;2023-03-01T00:16:41;6.00;36.20
3504;DHT22;1766;53.490;10.174;2023-03-01T00:18:44;6.00;36.30
3504;DHT22;1766;53.490;10.174;2023-03-01T00:20:50;6.00;36.30
3504;DHT22;1766;53.490;10.174;2023-03-01T00:22:52;5.90;36.30
3504;DHT22;1766;53.490;10.174;2023-03-01T00:24:54;5.90;36.30
3504;DHT22;1766;53.490;10.174;2023-03-01T00:26:56;6.00;36.30
3504;DHT22;1766;53.490;10.174;2023-03-01T00:28:59;5.90;36.20
3504;DHT22;1766;53.490;10.174;2023-03-01T00:31:03;5.90;36.30
3504;DHT22;1766;53.490;10.174;2023-03-01T00:33:05;5.90;36.50
3504;DHT22;1766;53.490;10.174;2023-03-01T00:35:07;5.90;36.40
3504;DHT22;1766;53.490;10.174;2023-03-01T00:37:09;5.90;36.90
3504;DHT22;1766;53.490;10.174;2023-03-01T00:39:13;5.90;36.40
3504;DHT22;1766;53.490;10.174;2023-03-01T00:41:17;5.90;36.50
3504;DHT22;1766;53.490;10.174;2023-03-01T00:43:21;5.90;36.60
3504;DHT22;1766;53.490;10.174;2023-03-01T00:45:24;5.90;36.60
3504;DHT22;1766;53.490;10.174;2023-03-01T00:47:29;5.90;36.60
3504;DHT22;1766;53.490;10.174;2023-03-01T00:49:31;5.80;36.50
3504;DHT22;1766;53.490;10.174;2023-03-01T00:51:33;5.80;36.60
3504;DHT22;1766;53.490;10.174;2023-03-01T00:53:35;5.80;36.80
3504;DHT22;1766;53.490;10.174;2023-03-01T00:55:38;5.70;36.80
3504;DHT22;1766;53.490;10.174;2023-03-01T00:57:39;5.80;36.80
3504;DHT22;1766;53.490;10.174;2023-03-01T00:59:41;5.80;36.90
3504;DHT22;1766;53.490;10.174;2023-03-01T01:01:44;5.80;36.80
3504;DHT22;1766;53.490;10.174;2023-03-01T01:03:47;5.80;36.80
3504;DHT22;1766;53.490;10.174;2023-03-01T01:05:50;5.80;36.90
3504;DHT22;1766;53.490;10.174;2023-03-01T01:07:52;5.80;36.90
3504;DHT22;1766;53.490;10.174;2023-03-01T01:09:54;5.80;36.90
3504;DHT22;1766;53.490;10.174;2023-03-01T01:11:56;5.80;36.90
3504;DHT22;1766;53.490;10.174;2023-03-01T01:13:58;5.80;37.10
3504;DHT22;1766;53.490;10.174;2023-03-01T01:16:00;5.80;37.70
3504;DHT22;1766;53.490;10.174;2023-03-01T01:18:04;5.80;37.10
3504;DHT22;1766;53.490;10.174;2023-03-01T01:20:06;5.80;37.10
3504;DHT22;1766;53.490;10.174;2023-03-01T01:22:09;5.80;37.20
3504;DHT22;1766;53.490;10.174;2023-03-01T01:24:11;5.80;37.00
3504;DHT22;1766;53.490;10.174;2023-03-01T01:26:19;5.80;37.10
3504;DHT22;1766;53.490;10.174;2023-03-01T01:28:21;5.70;37.00
3504;DHT22;1766;53.490;10.174;2023-03-01T01:30:23;5.70;36.90
3504;DHT22;1766;53.490;10.174;2023-03-01T01:32:25;5.80;37.10
3504;DHT22;1766;53.490;10.174;2023-03-01T01:34:28;5.70;37.00
3504;DHT22;1766;53.490;10.174;2023-03-01T01:36:30;5.70;37.00
3504;DHT22;1766;53.490;10.174;2023-03-01T01:38:32;5.70;37.10
3504;DHT22;1766;53.490;10.174;2023-03-01T01:40:35;5.70;37.20
3504;DHT22;1766;53.490;10.174;2023-03-01T01:42:44;5.70;37.20
3504;DHT22;1766;53.490;10.174;2023-03-01T01:44:47;4.40;36.10
3504;DHT22;1766;53.490;10.174;2023-03-01T01:46:51;5.70;37.30
3504;DHT22;1766;53.490;10.174;2023-03-01T01:48:57;5.70;37.40
3504;DHT22;1766;53.490;10.174;2023-03-01T01:51:03;5.70;37.40
3504;DHT22;1766;53.490;10.174;2023-03-01T01:53:09;5.60;37.30
3504;DHT22;1766;53.490;10.174;2023-03-01T01:55:15;5.60;37.30
3504;DHT22;1766;53.490;10.174;2023-03-01T01:57:24;5.60;37.40
3504;DHT22;1766;53.490;10.174;2023-03-01T01:59:28;5.60;37.40
3504;DHT22;1766;53.490;10.174;2023-03-01T02:01:32;5.50;37.40
3504;DHT22;1766;53.490;10.174;2023-03-01T02:03:37;5.60;37.40
3504;DHT22;1766;53.490;10.174;2023-03-01T02:05:46;5.60;37.50
3504;DHT22;1766;53.490;10.174;2023-03-01T02:07:52;5.60;37.50
3504;DHT22;1766;53.490;10.174;2023-03-01T02:09:54;5.60;37.50
3504;DHT22;1766;53.490;10.174;2023-03-01T02:12:04;5.50;37.60
3504;DHT22;1766;53.490;10.174;2023-03-01T02:14:07;5.50;37.60
3504;DHT22;1766;53.490;10.174;2023-03-01T02:16:10;5.50;37.60
3504;DHT22;1766;53.490;10.174;2023-03-01T02:18:16;5.50;37.70
3504;DHT22;1766;53.490;10.174;2023-03-01T02:20:23;5.50;37.80
3504;DHT22;1766;53.490;10.174;2023-03-01T02:22:31;5.50;37.80
3504;DHT22;1766;53.490;10.174;2023-03-01T02:24:40;5.70;38.00
3504;DHT22;1766;53.490;10.174;2023-03-01T02:26:54;5.50;37.90
3504;DHT22;1766;53.490;10.174;2023-03-01T02:28:58;5.60;38.00
3504;DHT22;1766;53.490;10.174;2023-03-01T02:31:01;5.60;38.10
3504;DHT22;1766;53.490;10.174;2023-03-01T02:33:17;5.60;38.20
3504;DHT22;1766;53.490;10.174;2023-03-01T02:35:19;5.60;38.10
3504;DHT22;1766;53.490;10.174;2023-03-01T02:37:23;5.60;38.20
3504;DHT22;1766;53.490;10.174;2023-03-01T02:39:29;5.70;38.30
3504;DHT22;1766;53.490;10.174;2023-03-01T02:41:36;5.70;38.50
3504;DHT22;1766;53.490;10.174;2023-03-01T02:43:39;5.80;38.50
3504;DHT22;1766;53.490;10.174;2023-03-01T02:45:48;5.80;38.50
3504;DHT22;1766;53.490;10.174;2023-03-01T02:47:53;5.80;38.60
3504;DHT22;1766;53.490;10.174;2023-03-01T02:49:55;5.90;38.70
3504;DHT22;1766;53.490;10.174;2023-03-01T02:52:13;6.00;38.80
3504;DHT22;1766;53.490;10.174;2023-03-01T02:54:25;6.00;38.90
3504;DHT22;1766;53.490;10.174;2023-03-01T02:56:29;6.10;38.90
3504;DHT22;1766;53.490;10.174;2023-03-01T02:58:31;6.10;38.80
3504;DHT22;1766;53.490;10.174;2023-03-01T03:00:43;6.10;38.90
3504;DHT22;1766;53.490;10.174;2023-03-01T03:02:48;6.20;39.00
3504;DHT22;1766;53.490;10.174;2023-03-01T03:04:51;6.20;39.10
3504;DHT22;1766;53.490;10.174;2023-03-01T03:06:53;6.30;39.10
3504;DHT22;1766;53.490;10.174;2023-03-01T03:08:55;6.30;39.10
3504;DHT22;1766;53.490;10.174;2023-03-01T03:10:57;6.40;39.10
3504;DHT22;1766;53.490;10.174;2023-03-01T03:13:00;6.40;39.10
3504;DHT22;1766;53.490;10.174;2023-03-01T03:15:04;6.40;39.30
3504;DHT22;1766;53.490;10.174;2023-03-01T03:17:10;6.50;39.30
3504;DHT22;1766;53.490;10.174;2023-03-01T03:19:12;6.40;39.60
3504;DHT22;1766;53.490;10.174;2023-03-01T03:21:15;6.50;39.30
3504;DHT22;1766;53.490;10.174;2023-03-01T03:23:17;6.50;39.30
3504;DHT22;1766;53.490;10.174;2023-03-01T03:25:20;6.50;39.20
3504;DHT22;1766;53.490;10.174;2023-03-01T03:27:27;6.50;39.30
3504;DHT22;1766;53.490;10.174;2023-03-01T03:29:29;6.60;39.40
3504;DHT22;1766;53.490;10.174;2023-03-01T03:31:30;6.60;39.20
3504;DHT22;1766;53.490;10.174;2023-03-01T03:33:33;6.50;39.10
3504;DHT22;1766;53.490;10.174;2023-03-01T03:35:39;6.70;39.30
3504;DHT22;1766;53.490;10.174;2023-03-01T03:37:42;6.60;39.30
3504;DHT22;1766;53.490;10.174;2023-03-01T03:39:59;6.60;39.30
3504;DHT22;1766;53.490;10.174;2023-03-01T03:42:01;6.60;39.30
3504;DHT22;1766;53.490;10.174;2023-03-01T03:44:03;6.60;39.30
3504;DHT22;1766;53.490;10.174;2023-03-01T03:46:05;6.60;39.30
3504;DHT22;1766;53.490;10.174;2023-03-01T03:48:09;6.80;39.50
3504;DHT22;1766;53.490;10.174;2023-03-01T03:50:14;6.70;39.40
3504;DHT22;1766;53.490;10.174;2023-03-01T03:52:17;6.70;39.40
3504;DHT22;1766;53.490;10.174;2023-03-01T03:54:19;6.70;39.30
3504;DHT22;1766;53.490;10.174;2023-03-01T03:56:21;6.70;39.40
3504;DHT22;1766;53.490;10.174;2023-03-01T03:58:26;6.70;39.40
3504;DHT22;1766;53.490;10.174;2023-03-01T04:00:28;6.60;39.40
3504;DHT22;1766;53.490;10.174;2023-03-01T04:02:30;6.70;39.50
3504;DHT22;1766;53.490;10.174;2023-03-01T04:04:32;6.70;39.60
3504;DHT22;1766;53.490;10.174;2023-03-01T04:06:35;6.70;39.50
3504;DHT22;1766;53.490;10.174;2023-03-01T04:08:37;6.70;39.60
3504;DHT22;1766;53.490;10.174;2023-03-01T04:10:41;6.80;39.70
3504;DHT22;1766;53.490;10.174;2023-03-01T04:12:44;6.80;39.80
3504;DHT22;1766;53.490;10.174;2023-03-01T04:14:46;6.90;39.80
3504;DHT22;1766;53.490;10.174;2023-03-01T04:16:48;6.90;39.60
3504;DHT22;1766;53.490;10.174;2023-03-01T04:18:50;6.90;39.60
3504;DHT22;1766;53.490;10.174;2023-03-01T04:20:53;7.00;39.80
3504;DHT22;1766;53.490;10.174;2023-03-01T04:22:59;7.00;39.80
3504;DHT22;1766;53.490;10.174;2023-03-01T04:25:10;6.90;39.80
3504;DHT22;1766;53.490;10.174;2023-03-01T04:27:17;7.10;39.80
3504;DHT22;1766;53.490;10.174;2023-03-01T04:29:19;7.10;39.70
3504;DHT22;1766;53.490;10.174;2023-03-01T04:31:21;7.10;39.80
3504;DHT22;1766;53.490;10.174;2023-03-01T04:33:24;7.20;39.80
3504;DHT22;1766;53.490;10.174;2023-03-01T04:35:26;7.20;39.80
3504;DHT22;1766;53.490;10.174;2023-03-01T04:37:28;7.20;39.70
3504;DHT22;1766;53.490;10.174;2023-03-01T04:39:31;7.20;39.80
3504;DHT22;1766;53.490;10.174;2023-03-01T04:41:33;7.30;39.80
3504;DHT22;1766;53.490;10.174;2023-03-01T04:43:35;7.20;39.70
3504;DHT22;1766;53.490;10.174;2023-03-01T04:45:37;7.20;39.80
3504;DHT22;1766;53.490;10.174;2023-03-01T04:47:39;7.30;39.90
3504;DHT22;1766;53.490;10.174;2023-03-01T04:49:43;7.30;40.00
3504;DHT22;1766;53.490;10.174;2023-03-01T04:51:44;7.30;39.90
3504;DHT22;1766;53.490;10.174;2023-03-01T04:53:46;7.30;39.80
3504;DHT22;1766;53.490;10.174;2023-03-01T04:55:49;7.40;39.90
3504;DHT22;1766;53.490;10.174;2023-03-01T04:57:52;7.40;40.00
3504;DHT22;1766;53.490;10.174;2023-03-01T04:59:54;7.40;40.00
3504;DHT22;1766;53.490;10.174;2023-03-01T05:01:56;7.40;39.90
3504;DHT22;1766;53.490;10.174;2023-03-01T05:03:58;7.40;39.90
3504;DHT22;1766;53.490;10.174;2023-03-01T05:06:03;7.50;40.10
3504;DHT22;1766;53.490;10.174;2023-03-01T05:08:07;7.50;40.00
3504;DHT22;1766;53.490;10.174;2023-03-01T05:10:10;7.50;40.00
3504;DHT22;1766;53.490;10.174;2023-03-01T05:12:14;7.40;39.80
3504;DHT22;1766;53.490;10.174;2023-03-01T05:14:16;7.60;40.00
3504;DHT22;1766;53.490;10.174;2023-03-01T05:16:17;7.50;39.90
3504;DHT22;1766;53.490;10.174;2023-03-01T05:18:20;7.50;39.80
3504;DHT22;1766;53.490;10.174;2023-03-01T05:20:26;7.60;40.00
3504;DHT22;1766;53.490;10.174;2023-03-01T05:22:28;7.60;40.00
3504;DHT22;1766;53.490;10.174;2023-03-01T05:24:31;7.60;39.90
3504;DHT22;1766;53.490;10.174;2023-03-01T05:26:34;7.60;40.00
3504;DHT22;1766;53.490;10.174;2023-03-01T05:28:41;7.60;40.10
3504;DHT22;1766;53.490;10.174;2023-03-01T05:30:43;7.60;40.40
3504;DHT22;1766;53.490;10.174;2023-03-01T05:32:46;7.80;40.60
3504;DHT22;1766;53.490;10.174;2023-03-01T05:34:49;7.90;40.80
3504;DHT22;1766;53.490;10.174;2023-03-01T05:36:52;7.90;40.60
3504;DHT22;1766;53.490;10.174;2023-03-01T05:38:54;7.90;40.60
3504;DHT22;1766;53.490;10.174;2023-03-01T05:40:56;8.00;40.40
3504;DHT22;1766;53.490;10.174;2023-03-01T05:42:58;8.00;40.40
3504;DHT22;1766;53.490;10.174;2023-03-01T05:45:01;8.00;40.40
3504;DHT22;1766;53.490;10.174;2023-03-01T05:47:03;8.00;40.30
3504;DHT22;1766;53.490;10.174;2023-03-01T05:49:05;8.00;40.30
3504;DHT22;1766;53.490;10.174;2023-03-01T05:51:07;8.00;40.30
3504;DHT22;1766;53.490;10.174;2023-03-01T05:53:11;8.00;40.30
3504;DHT22;1766;53.490;10.174;2023-03-01T05:55:14;8.00;40.40
3504;DHT22;1766;53.490;10.174;2023-03-01T05:57:16;8.00;40.30
3504;DHT22;1766;53.490;10.174;2023-03-01T05:59:18;8.00;40.20
3504;DHT22;1766;53.490;10.174;2023-03-01T06:01:21;7.90;40.20
3504;DHT22;1766;53.490;10.174;2023-03-01T06:03:23;7.90;40.30
3504;DHT22;1766;53.490;10.174;2023-03-01T06:05:25;7.90;40.30
3504;DHT22;1766;53.490;10.174;2023-03-01T06:07:28;7.90;40.40
3504;DHT22;1766;53.490;10.174;2023-03-01T06:09:30;8.00;40.30
3504;DHT22;1766;53.490;10.174;2023-03-01T06:11:33;8.00;40.30
3504;DHT22;1766;53.490;10.174;2023-03-01T06:13:35;7.90;40.20
3504;DHT22;1766;53.490;10.174;2023-03-01T06:15:37;8.00;40.30
3504;DHT22;1766;53.490;10.174;2023-03-01T06:17:41;7.90;40.20
3504;DHT22;1766;53.490;10.174;2023-03-01T06:19:44;8.00;40.40
3504;DHT22;1766;53.490;10.174;2023-03-01T06:21:45;8.00;40.30
3504;DHT22;1766;53.490;10.174;2023-03-01T06:23:47;8.00;40.30
3504;DHT22;1766;53.490;10.174;2023-03-01T06:25:49;8.00;40.30
3504;DHT22;1766;53.490;10.174;2023-03-01T06:27:51;8.00;40.30
3504;DHT22;1766;53.490;10.174;2023-03-01T06:29:53;8.00;40.20
3504;DHT22;1766;53.490;10.174;2023-03-01T06:31:55;8.10;40.30
3504;DHT22;1766;53.490;10.174;2023-03-01T06:33:58;8.10;40.30
3504;DHT22;1766;53.490;10.174;2023-03-01T06:36:00;8.10;40.30
3504;DHT22;1766;53.490;10.174;2023-03-01T06:38:05;8.10;40.30
3504;DHT22;1766;53.490;10.174;2023-03-01T06:40:08;8.20;40.40
3504;DHT22;1766;53.490;10.174;2023-03-01T06:42:11;8.20;40.40
3504;DHT22;1766;53.490;10.174;2023-03-01T06:44:13;8.20;40.30
3504;DHT22;1766;53.490;10.174;2023-03-01T06:46:15;8.40;40.40
3504;DHT22;1766;53.490;10.174;2023-03-01T06:48:17;8.30;40.30
3504;DHT22;1766;53.490;10.174;2023-03-01T06:50:20;8.30;40.30
3504;DHT22;1766;53.490;10.174;2023-03-01T06:52:22;8.40;40.30
3504;DHT22;1766;53.490;10.174;2023-03-01T06:54:24;8.40;40.20
3504;DHT22;1766;53.490;10.174;2023-03-01T06:56:25;8.40;40.20
3504;DHT22;1766;53.490;10.174;2023-03-01T06:58:27;8.40;40.20
3504;DHT22;1766;53.490;10.174;2023-03-01T07:00:30;8.50;40.30
3504;DHT22;1766;53.490;10.174;2023-03-01T07:02:32;8.50;40.40
3504;DHT22;1766;53.490;10.174;2023-03-01T07:04:33;8.50;40.30
3504;DHT22;1766;53.490;10.174;2023-03-01T07:06:37;8.60;40.30
3504;DHT22;1766;53.490;10.174;2023-03-01T07:08:38;8.60;40.30
3504;DHT22;1766;53.490;10.174;2023-03-01T07:10:40;8.50;40.20
3504;DHT22;1766;53.490;10.174;2023-03-01T07:12:42;8.70;40.30
3504;DHT22;1766;53.490;10.174;2023-03-01T07:14:44;8.80;40.40
3504;DHT22;1766;53.490;10.174;2023-03-01T07:16:46;8.80;40.30
3504;DHT22;1766;53.490;10.174;2023-03-01T07:18:48;8.80;40.80
3504;DHT22;1766;53.490;10.174;2023-03-01T07:20:50;8.90;40.40
3504;DHT22;1766;53.490;10.174;2023-03-01T07:22:53;8.80;40.30
3504;DHT22;1766;53.490;10.174;2023-03-01T07:24:56;9.00;40.50
3504;DHT22;1766;53.490;10.174;2023-03-01T07:26:58;8.90;40.30
3504;DHT22;1766;53.490;10.174;2023-03-01T07:29:00;9.00;40.30
3504;DHT22;1766;53.490;10.174;2023-03-01T07:31:03;9.00;40.30
3504;DHT22;1766;53.490;10.174;2023-03-01T07:33:05;9.10;40.30
3504;DHT22;1766;53.490;10.174;2023-03-01T07:35:08;9.10;40.20
3504;DHT22;1766;53.490;10.174;2023-03-01T07:37:10;9.00;40.10
3504;DHT22;1766;53.490;10.174;2023-03-01T07:39:13;9.20;40.20
3504;DHT22;1766;53.490;10.174;2023-03-01T07:41:15;9.20;40.10
3504;DHT22;1766;53.490;10.174;2023-03-01T07:43:16;9.10;39.90
3504;DHT22;1766;53.490;10.174;2023-03-01T07:45:18;9.20;40.00
3504;DHT22;1766;53.490;10.174;2023-03-01T07:47:20;9.20;40.00
3504;DHT22;1766;53.490;10.174;2023-03-01T07:49:22;9.20;40.10
3504;DHT22;1766;53.490;10.174;2023-03-01T07:51:24;9.20;40.10
3504;DHT22;1766;53.490;10.174;2023-03-01T07:53:26;9.20;40.10
3504;DHT22;1766;53.490;10.174;2023-03-01T07:55:29;9.30;40.20
3504;DHT22;1766;53.490;10.174;2023-03-01T07:57:31;9.30;40.10
3504;DHT22;1766;53.490;10.174;2023-03-01T07:59:32;9.40;40.10
3504;DHT22;1766;53.490;10.174;2023-03-01T08:01:34;9.40;40.60
3504;DHT22;1766;53.490;10.174;2023-03-01T08:03:37;9.50;40.00
3504;DHT22;1766;53.490;10.174;2023-03-01T08:05:39;9.50;40.00
3504;DHT22;1766;53.490;10.174;2023-03-01T08:07:41;9.40;39.90
3504;DHT22;1766;53.490;10.174;2023-03-01T08:09:42;9.50;40.00
3504;DHT22;1766;53.490;10.174;2023-03-01T08:11:45;9.60;40.00
3504;DHT22;1766;53.490;10.174;2023-03-01T08:13:48;9.60;40.00
3504;DHT22;1766;53.490;10.174;2023-03-01T08:15:50;9.60;40.00
3504;DHT22;1766;53.490;10.174;2023-03-01T08:17:51;9.70;40.10
3504;DHT22;1766;53.490;10.174;2023-03-01T08:19:53;9.70;39.90
3504;DHT22;1766;53.490;10.174;2023-03-01T08:21:55;9.80;40.00
3504;DHT22;1766;53.490;10.174;2023-03-01T08:23:58;9.80;40.00
3504;DHT22;1766;53.490;10.174;2023-03-01T08:26:05;9.90;40.00
3504;DHT22;1766;53.490;10.174;2023-03-01T08:28:09;9.90;40.00
3504;DHT22;1766;53.490;10.174;2023-03-01T08:30:12;10.00;39.50
3504;DHT22;1766;53.490;10.174;2023-03-01T08:32:14;10.10;39.00
3504;DHT22;1766;53.490;10.174;2023-03-01T08:34:17;10.10;38.90
3504;DHT22;1766;53.490;10.174;2023-03-01T08:36:19;10.20;39.00
3504;DHT22;1766;53.490;10.174;2023-03-01T08:38:21;10.30;38.90
3504;DHT22;1766;53.490;10.174;2023-03-01T08:40:23;10.30;38.70
3504;DHT22;1766;53.490;10.174;2023-03-01T08:42:24;10.40;38.70
3504;DHT22;1766;53.490;10.174;2023-03-01T08:44:27;10.50;38.70
3504;DHT22;1766;53.490;10.174;2023-03-01T08:46:31;10.60;38.60
3504;DHT22;1766;53.490;10.174;2023-03-01T08:48:34;10.60;38.60
3504;DHT22;1766;53.490;10.174;2023-03-01T08:50:36;10.80;38.70
3504;DHT22;1766;53.490;10.174;2023-03-01T08:52:37;10.90;38.60
3504;DHT22;1766;53.490;10.174;2023-03-01T08:54:39;10.90;38.50
3504;DHT22;1766;53.490;10.174;2023-03-01T08:56:41;11.00;38.40
3504;DHT22;1766;53.490;10.174;2023-03-01T08:58:44;11.10;38.40
3504;DHT22;1766;53.490;10.174;2023-03-01T09:00:48;11.10;38.30
3504;DHT22;1766;53.490;10.174;2023-03-01T09:02:49;11.20;38.20
3504;DHT22;1766;53.490;10.174;2023-03-01T09:04:51;11.30;38.20
3504;DHT22;1766;53.490;10.174;2023-03-01T09:06:53;11.40;38.10
3504;DHT22;1766;53.490;10.174;2023-03-01T09:08:55;11.50;38.20
3504;DHT22;1766;53.490;10.174;2023-03-01T09:10:56;11.50;38.00
3504;DHT22;1766;53.490;10.174;2023-03-01T09:12:58;11.70;38.10
3504;DHT22;1766;53.490;10.174;2023-03-01T09:15:00;11.80;38.00
3504;DHT22;1766;53.490;10.174;2023-03-01T09:17:03;11.90;38.00
3504;DHT22;1766;53.490;10.174;2023-03-01T09:19:05;11.90;37.90
3504;DHT22;1766;53.490;10.174;2023-03-01T09:21:08;12.00;37.70
3504;DHT22;1766;53.490;10.174;2023-03-01T09:23:11;12.10;37.80
3504;DHT22;1766;53.490;10.174;2023-03-01T09:25:14;12.10;37.50
3504;DHT22;1766;53.490;10.174;2023-03-01T09:27:22;12.20;37.40
3504;DHT22;1766;53.490;10.174;2023-03-01T09:29:25;12.20;37.20
3504;DHT22;1766;53.490;10.174;2023-03-01T09:31:27;12.30;37.20
3504;DHT22;1766;53.490;10.174;2023-03-01T09:33:31;12.30;37.00
3504;DHT22;1766;53.490;10.174;2023-03-01T09:35:34;12.30;37.00
3504;DHT22;1766;53.490;10.174;2023-03-01T09:37:36;12.40;36.90
3504;DHT22;1766;53.490;10.174;2023-03-01T09:39:38;12.40;36.90
3504;DHT22;1766;53.490;10.174;2023-03-01T09:41:48;12.50;36.80
3504;DHT22;1766;53.490;10.174;2023-03-01T09:43:54;12.50;37.00
3504;DHT22;1766;53.490;10.174;2023-03-01T09:46:02;12.60;36.80
3504;DHT22;1766;53.490;10.174;2023-03-01T09:48:15;12.50;36.70
3504;DHT22;1766;53.490;10.174;2023-03-01T09:50:20;12.60;36.70
3504;DHT22;1766;53.490;10.174;2023-03-01T09:52:27;12.70;36.70
3504;DHT22;1766;53.490;10.174;2023-03-01T09:54:32;12.70;36.60
3504;DHT22;1766;53.490;10.174;2023-03-01T09:56:37;12.80;36.60
3504;DHT22;1766;53.490;10.174;2023-03-01T09:58:48;12.80;36.60
3504;DHT22;1766;53.490;10.174;2023-03-01T10:00:54;12.90;36.60
3504;DHT22;1766;53.490;10.174;2023-03-01T10:03:02;13.00;36.40
3504;DHT22;1766;53.490;10.174;2023-03-01T10:05:25;12.90;36.30
3504;DHT22;1766;53.490;10.174;2023-03-01T10:07:44;12.90;36.20
3504;DHT22;1766;53.490;10.174;2023-03-01T10:09:49;12.90;36.20
3504;DHT22;1766;53.490;10.174;2023-03-01T10:11:54;13.00;36.10
3504;DHT22;1766;53.490;10.174;2023-03-01T10:13:59;13.00;36.20
3504;DHT22;1766;53.490;10.174;2023-03-01T10:16:10;13.00;36.30
3504;DHT22;1766;53.490;10.174;2023-03-01T10:18:18;13.10;36.30
3504;DHT22;1766;53.490;10.174;2023-03-01T10:20:23;13.20;36.20
3504;DHT22;1766;53.490;10.174;2023-03-01T10:22:28;13.20;36.20
3504;DHT22;1766;53.490;10.174;2023-03-01T10:24:34;13.30;36.30
3504;DHT22;1766;53.490;10.174;2023-03-01T10:26:47;13.40;36.20
3504;DHT22;1766;53.490;10.174;2023-03-01T10:28:59;13.40;36.20
3504;DHT22;1766;53.490;10.174;2023-03-01T10:31:07;13.50;36.10
3504;DHT22;1766;53.490;10.174;2023-03-01T10:33:17;13.70;36.20
3504;DHT22;1766;53.490;10.174;2023-03-01T10:35:25;13.70;36.10
3504;DHT22;1766;53.490;10.174;2023-03-01T10:37:27;13.80;36.00
3504;DHT22;1766;53.490;10.174;2023-03-01T10:39:29;13.90;36.00
3504;DHT22;1766;53.490;10.174;2023-03-01T10:41:31;14.00;35.90
3504;DHT22;1766;53.490;10.174;2023-03-01T10:43:43;14.10;35.80
3504;DHT22;1766;53.490;10.174;2023-03-01T10:45:46;14.10;35.90
3504;DHT22;1766;53.490;10.174;2023-03-01T10:48:04;14.20;35.60
3504;DHT22;1766;53.490;10.174;2023-03-01T10:50:19;14.20;35.50
3504;DHT22;1766;53.490;10.174;2023-03-01T10:52:25;14.20;35.40
3504;DHT22;1766;53.490;10.174;2023-03-01T10:54:31;14.30;35.40
3504;DHT22;1766;53.490;10.174;2023-03-01T10:56:46;14.30;35.30
3504;DHT22;1766;53.490;10.174;2023-03-01T10:58:57;14.40;35.50
3504;DHT22;1766;53.490;10.174;2023-03-01T11:01:02;14.40;35.30
3504;DHT22;1766;53.490;10.174;2023-03-01T11:03:11;14.50;35.30
3504;DHT22;1766;53.490;10.174;2023-03-01T11:05:19;14.60;35.10
3504;DHT22;1766;53.490;10.174;2023-03-01T11:07:25;14.60;35.10
3504;DHT22;1766;53.490;10.174;2023-03-01T11:09:31;14.70;35.10
3504;DHT22;1766;53.490;10.174;2023-03-01T11:11:37;14.80;35.10
3504;DHT22;1766;53.490;10.174;2023-03-01T11:13:50;14.80;34.80
3504;DHT22;1766;53.490;10.174;2023-03-01T11:15:59;14.80;35.00
3504;DHT22;1766;53.490;10.174;2023-03-01T11:18:02;14.90;35.00
3504;DHT22;1766;53.490;10.174;2023-03-01T11:20:16;15.00;34.90
3504;DHT22;1766;53.490;10.174;2023-03-01T11:22:25;15.00;34.90
3504;DHT22;1766;53.490;10.174;2023-03-01T11:24:33;15.20;34.90
3504;DHT22;1766;53.490;10.174;2023-03-01T11:26:40;15.20;34.90
3504;DHT22;1766;53.490;10.174;2023-03-01T11:28:47;15.30;34.90
3504;DHT22;1766;53.490;10.174;2023-03-01T11:30:55;15.40;34.90
3504;DHT22;1766;53.490;10.174;2023-03-01T11:33:17;15.40;34.80
3504;DHT22;1766;53.490;10.174;2023-03-01T11:35:22;15.40;34.70
3504;DHT22;1766;53.490;10.174;2023-03-01T11:37:33;15.50;34.40
3504;DHT22;1766;53.490;10.174;2023-03-01T11:39:41;15.50;34.60
3504;DHT22;1766;53.490;10.174;2023-03-01T11:41:49;15.60;34.80
3504;DHT22;1766;53.490;10.174;2023-03-01T11:44:00;16.10;35.30
3504;DHT22;1766;53.490;10.174;2023-03-01T11:48:50;18.70;33.80
3504;DHT22;1766;53.490;10.174;2023-03-01T11:51:01;20.70;32.20
3504;DHT22;1766;53.490;10.174;2023-03-01T11:53:20;22.30;30.90
3504;DHT22;1766;53.490;10.174;2023-03-01T11:55:44;23.70;29.50
3504;DHT22;1766;53.490;10.174;2023-03-01T11:58:05;24.80;28.70
3504;DHT22;1766;53.490;10.174;2023-03-01T12:00:25;25.90;27.80
3504;DHT22;1766;53.490;10.174;2023-03-01T12:02:48;26.70;27.00
3504;DHT22;1766;53.490;10.174;2023-03-01T12:05:16;27.20;26.40
3504;DHT22;1766;53.490;10.174;2023-03-01T12:07:26;27.50;25.70
3504;DHT22;1766;53.490;10.174;2023-03-01T12:09:44;27.50;25.30
3504;DHT22;1766;53.490;10.174;2023-03-01T12:12:07;27.60;25.00
3504;DHT22;1766;53.490;10.174;2023-03-01T12:14:37;27.70;24.70
3504;DHT22;1766;53.490;10.174;2023-03-01T12:16:58;27.90;24.50
3504;DHT22;1766;53.490;10.174;2023-03-01T12:19:33;27.60;24.30
3504;DHT22;1766;53.490;10.174;2023-03-01T12:21:58;27.00;24.80
3504;DHT22;1766;53.490;10.174;2023-03-01T12:24:24;26.70;24.60
3504;DHT22;1766;53.490;10.174;2023-03-01T12:26:40;26.60;24.60
3504;DHT22;1766;53.490;10.174;2023-03-01T12:28:52;26.30;24.20
3504;DHT22;1766;53.490;10.174;2023-03-01T12:31:11;25.80;24.40
3504;DHT22;1766;53.490;10.174;2023-03-01T12:33:41;25.40;24.70
3504;DHT22;1766;53.490;10.174;2023-03-01T12:35:57;25.10;25.20
3504;DHT22;1766;53.490;10.174;2023-03-01T12:38:21;24.90;25.00
3504;DHT22;1766;53.490;10.174;2023-03-01T12:40:42;24.80;25.10
3504;DHT22;1766;53.490;10.174;2023-03-01T12:43:00;24.70;25.20
3504;DHT22;1766;53.490;10.174;2023-03-01T12:45:26;24.80;25.40
3504;DHT22;1766;53.490;10.174;2023-03-01T12:47:58;24.80;25.00
3504;DHT22;1766;53.490;10.174;2023-03-01T12:50:14;24.90;25.20
3504;DHT22;1766;53.490;10.174;2023-03-01T12:52:24;25.20;25.10
3504;DHT22;1766;53.490;10.174;2023-03-01T12:54:35;25.50;25.40
3504;DHT22;1766;53.490;10.174;2023-03-01T12:56:38;25.80;24.60
3504;DHT22;1766;53.490;10.174;2023-03-01T12:58:48;26.00;24.40
3504;DHT22;1766;53.490;10.174;2023-03-01T13:01:04;26.10;23.90
3504;DHT22;1766;53.490;10.174;2023-03-01T13:03:21;26.30;23.80
3504;DHT22;1766;53.490;10.174;2023-03-01T13:05:34;26.60;23.80
3504;DHT22;1766;53.490;10.174;2023-03-01T13:07:44;26.90;23.50
3504;DHT22;1766;53.490;10.174;2023-03-01T13:10:03;27.30;23.30
3504;DHT22;1766;53.490;10.174;2023-03-01T13:14:53;27.60;22.60
3504;DHT22;1766;53.490;10.174;2023-03-01T13:16:55;27.60;22.70
3504;DHT22;1766;53.490;10.174;2023-03-01T13:19:07;27.50;22.70
3504;DHT22;1766;53.490;10.174;2023-03-01T13:21:11;27.30;22.50
3504;DHT22;1766;53.490;10.174;2023-03-01T13:23:25;27.00;22.50
3504;DHT22;1766;53.490;10.174;2023-03-01T13:25:29;26.60;22.60
3504;DHT22;1766;53.490;10.174;2023-03-01T13:27:30;26.30;22.60
3504;DHT22;1766;53.490;10.174;2023-03-01T13:29:44;25.90;22.80
3504;DHT22;1766;53.490;10.174;2023-03-01T13:32:03;25.60;23.10
3504;DHT22;1766;53.490;10.174;2023-03-01T13:36:48;25.30;23.40
3504;DHT22;1766;53.490;10.174;2023-03-01T13:38:56;25.40;23.50
3504;DHT22;1766;53.490;10.174;2023-03-01T13:41:00;25.30;23.40